createdAt,value
2024-01-30T00:00:38.251Z,9.57
2024-01-30T00:03:05.189Z,17.40
2024-01-30T00:05:31.865Z,11.05
2024-01-30T00:07:58.633Z,19.23
2024-01-30T00:10:25.438Z,14.40
2024-01-30T00:12:52.277Z,12.75
2024-01-30T00:15:19.488Z,16.65
2024-01-30T00:17:46.187Z,9.73
2024-01-30T00:20:12.936Z,14.32
2024-01-30T00:22:41.024Z,22.38
2024-01-30T00:25:10.809Z,12.60
2024-01-30T00:27:37.469Z,10.18
2024-01-30T00:30:04.653Z,12.30
2024-01-30T00:32:31.315Z,13.63
2024-01-30T00:34:58.207Z,13.35
2024-01-30T00:37:26.271Z,10.77
2024-01-30T00:39:53.067Z,13.27
2024-01-30T00:42:20.964Z,17.13
2024-01-30T00:44:47.582Z,17.75
2024-01-30T00:47:14.273Z,17.45
2024-01-30T00:49:41.340Z,14.63
2024-01-30T00:52:10.212Z,13.48
2024-01-30T00:54:36.983Z,12.32
2024-01-30T00:57:04.065Z,10.43
2024-01-30T00:59:30.719Z,10.35
2024-01-30T01:01:57.485Z,15.98
2024-01-30T01:04:25.526Z,8.60
2024-01-30T01:06:52.318Z,15.73
2024-01-30T01:09:19.984Z,7.75
2024-01-30T01:11:47.406Z,6.50
2024-01-30T01:14:15.007Z,10.77
2024-01-30T01:16:42.661Z,7.78
2024-01-30T01:19:09.829Z,5.22
2024-01-30T01:21:37.693Z,3.67
2024-01-30T01:24:05.936Z,5.18
2024-01-30T01:26:33.544Z,3.72
2024-01-30T01:29:00.900Z,2.50
2024-01-30T01:31:31.186Z,2.15
2024-01-30T01:33:58.879Z,1.80
2024-01-30T01:36:26.379Z,5.47
2024-01-30T01:38:53.747Z,1.95
2024-01-30T01:41:21.353Z,1.63
2024-01-30T01:43:48.790Z,2.25
2024-01-30T01:46:19.218Z,0.22
2024-01-30T01:48:48.669Z,5.88
2024-01-30T01:51:17.465Z,0.77
2024-01-30T01:53:44.342Z,1.48
2024-01-30T01:56:11.357Z,2.33
2024-01-30T01:58:38.613Z,1.15
2024-01-30T02:01:06.138Z,1.85
2024-01-30T02:03:33.186Z,0.82
2024-01-30T02:06:00.026Z,2.30
2024-01-30T02:08:27.719Z,1.25
2024-01-30T02:10:55.944Z,1.00
2024-01-30T02:13:23.311Z,1.33
2024-01-30T02:15:52.834Z,1.60
2024-01-30T02:18:22.718Z,2.47
2024-01-30T02:20:49.677Z,2.08
2024-01-30T02:23:17.433Z,0.60
2024-01-30T02:25:45.926Z,2.10
2024-01-30T02:28:13.720Z,1.33
2024-01-30T02:30:42.555Z,1.08
2024-01-30T02:33:09.248Z,0.77
2024-01-30T02:35:36.388Z,0.93
2024-01-30T02:38:03.140Z,1.83
2024-01-30T02:40:31.369Z,1.25
2024-01-30T02:43:00.632Z,1.63
2024-01-30T02:45:27.280Z,0.95
2024-01-30T02:47:53.971Z,0.63
2024-01-30T02:50:20.862Z,1.67
2024-01-30T02:52:47.621Z,1.45
2024-01-30T02:55:14.422Z,0.85
2024-01-30T02:57:41.249Z,0.65
2024-01-30T03:00:10.566Z,0.75
2024-01-30T03:02:38.008Z,2.40
2024-01-30T03:05:05.892Z,2.78
2024-01-30T03:07:32.861Z,2.75
2024-01-30T03:09:59.529Z,1.27
2024-01-30T03:12:26.317Z,2.63
2024-01-30T03:14:53.669Z,6.05
2024-01-30T03:17:20.252Z,1.30
2024-01-30T03:19:46.946Z,3.70
2024-01-30T03:22:14.102Z,2.58
2024-01-30T03:24:40.784Z,3.17
2024-01-30T03:27:07.477Z,1.95
2024-01-30T03:29:34.291Z,0.90
2024-01-30T03:32:00.897Z,0.88
2024-01-30T03:34:27.624Z,0.82
2024-01-30T03:36:54.746Z,1.42
2024-01-30T03:39:21.371Z,2.25
2024-01-30T03:41:47.967Z,1.17
2024-01-30T03:44:14.585Z,1.08
2024-01-30T03:46:42.483Z,1.52
2024-01-30T03:49:09.272Z,1.27
2024-01-30T03:51:38.596Z,1.67
2024-01-30T03:54:06.601Z,2.42
2024-01-30T03:56:33.472Z,1.63
2024-01-30T03:59:01.810Z,1.33
2024-01-30T04:01:28.566Z,1.33
2024-01-30T04:03:55.383Z,0.73
2024-01-30T04:06:22.083Z,0.95
2024-01-30T04:08:48.663Z,1.02
2024-01-30T04:11:15.279Z,1.77
2024-01-30T04:13:44.438Z,1.00
2024-01-30T04:16:21.573Z,0.88
2024-01-30T04:18:48.246Z,1.45
2024-01-30T04:21:14.910Z,0.43
2024-01-30T04:23:42.597Z,1.02
2024-01-30T04:26:09.387Z,0.75
2024-01-30T04:28:36.124Z,0.90
2024-01-30T04:31:02.876Z,0.70
2024-01-30T04:33:29.591Z,1.73
2024-01-30T04:35:57.672Z,0.68
2024-01-30T04:38:24.701Z,0.77
2024-01-30T04:40:51.362Z,0.88
2024-01-30T04:43:20.381Z,1.10
2024-01-30T04:45:48.648Z,2.22
2024-01-30T04:48:15.393Z,1.95
2024-01-30T04:50:42.004Z,2.17
2024-01-30T04:53:09.096Z,3.25
2024-01-30T04:55:36.981Z,2.60
2024-01-30T04:58:03.817Z,2.85
2024-01-30T05:00:30.545Z,3.15
2024-01-30T05:02:57.375Z,1.88
2024-01-30T05:05:24.130Z,2.83
2024-01-30T05:07:50.763Z,3.63
2024-01-30T05:10:17.491Z,2.80
2024-01-30T05:12:44.245Z,1.88
2024-01-30T05:15:10.978Z,2.70
2024-01-30T05:17:37.698Z,2.13
2024-01-30T05:20:06.138Z,2.00
2024-01-30T05:22:32.937Z,5.47
2024-01-30T05:24:59.629Z,1.95
2024-01-30T05:27:26.270Z,1.92
2024-01-30T05:29:52.936Z,2.88
2024-01-30T05:32:19.642Z,1.88
2024-01-30T05:34:47.683Z,2.47
2024-01-30T05:37:18.227Z,2.60
2024-01-30T05:39:44.967Z,2.63
2024-01-30T05:42:11.576Z,2.20
2024-01-30T05:44:38.241Z,2.10
2024-01-30T05:47:04.913Z,2.45
2024-01-30T05:49:31.560Z,2.47
2024-01-30T05:51:58.216Z,2.88
2024-01-30T05:54:24.886Z,2.83
2024-01-30T05:56:51.720Z,3.20
2024-01-30T05:59:18.336Z,2.35
2024-01-30T06:01:49.004Z,4.25
2024-01-30T06:04:16.329Z,2.40
2024-01-30T06:06:43.230Z,1.77
2024-01-30T06:09:10.890Z,2.40
2024-01-30T06:11:37.585Z,1.38
2024-01-30T06:14:04.391Z,1.58
2024-01-30T06:16:31.196Z,1.60
2024-01-30T06:18:58.042Z,1.42
2024-01-30T06:21:25.149Z,1.05
2024-01-30T06:23:51.811Z,2.63
2024-01-30T06:26:18.600Z,2.20
2024-01-30T06:28:45.616Z,2.92
2024-01-30T06:31:12.279Z,1.25
2024-01-30T06:33:39.087Z,3.00
2024-01-30T06:36:05.921Z,2.78
2024-01-30T06:38:32.483Z,2.17
2024-01-30T06:40:59.236Z,3.42
2024-01-30T06:43:25.971Z,2.33
2024-01-30T06:45:53.137Z,1.90
2024-01-30T06:48:19.939Z,1.80
2024-01-30T06:50:47.325Z,2.00
2024-01-30T06:53:14.007Z,1.15
2024-01-30T06:55:40.753Z,3.35
2024-01-30T06:58:07.536Z,2.17
2024-01-30T07:00:34.203Z,3.67
2024-01-30T07:03:00.881Z,1.90
2024-01-30T07:05:28.766Z,3.88
2024-01-30T07:07:55.582Z,1.95
2024-01-30T07:10:22.880Z,2.03
2024-01-30T07:12:49.600Z,2.53
2024-01-30T07:15:19.243Z,1.30
2024-01-30T07:17:45.912Z,1.85
2024-01-30T07:20:16.332Z,1.38
2024-01-30T07:22:45.296Z,1.65
2024-01-30T07:25:12.234Z,1.70
2024-01-30T07:27:39.033Z,1.13
2024-01-30T07:30:06.792Z,1.38
2024-01-30T07:32:33.538Z,1.83
2024-01-30T07:35:07.657Z,5.35
2024-01-30T07:37:36.375Z,0.95
2024-01-30T07:40:04.332Z,2.38
2024-01-30T07:42:32.554Z,4.55
2024-01-30T07:44:59.251Z,3.35
2024-01-30T07:47:26.072Z,1.40
2024-01-30T07:49:52.975Z,1.10
2024-01-30T07:52:19.887Z,4.63
2024-01-30T07:54:46.738Z,0.95
2024-01-30T07:57:13.420Z,2.10
2024-01-30T07:59:40.117Z,2.00
2024-01-30T08:02:10.153Z,1.25
2024-01-30T08:04:38.610Z,1.83
2024-01-30T08:07:05.409Z,1.55
2024-01-30T08:09:32.258Z,1.88
2024-01-30T08:11:58.968Z,3.10
2024-01-30T08:14:27.040Z,1.42
2024-01-30T08:16:53.658Z,1.15
2024-01-30T08:19:23.770Z,1.48
2024-01-30T08:21:50.694Z,1.27
2024-01-30T08:24:17.427Z,3.10
2024-01-30T08:26:44.271Z,2.10
2024-01-30T08:29:11.682Z,1.88
2024-01-30T08:31:39.776Z,1.98
2024-01-30T08:34:07.148Z,3.78
2024-01-30T08:36:33.888Z,2.42
2024-01-30T08:39:02.960Z,6.85
2024-01-30T08:41:31.832Z,2.58
2024-01-30T08:43:58.609Z,2.03
2024-01-30T08:46:25.424Z,2.75
2024-01-30T08:48:52.317Z,1.08
2024-01-30T08:51:19.097Z,1.63
2024-01-30T08:53:47.123Z,2.30
2024-01-30T08:56:15.176Z,2.80
2024-01-30T08:58:41.824Z,2.72
2024-01-30T09:01:08.548Z,2.55
2024-01-30T09:03:35.341Z,1.73
2024-01-30T09:06:02.164Z,1.13
2024-01-30T09:08:29.023Z,1.92
2024-01-30T09:10:56.233Z,1.73
2024-01-30T09:13:24.407Z,5.00
2024-01-30T09:15:51.077Z,2.88
2024-01-30T09:18:17.853Z,5.40
2024-01-30T09:20:46.581Z,2.13
2024-01-30T09:23:13.187Z,0.98
2024-01-30T09:25:40.119Z,1.77
2024-01-30T09:28:07.208Z,3.90
2024-01-30T09:30:33.885Z,0.98
2024-01-30T09:33:00.665Z,1.85
2024-01-30T09:35:30.451Z,4.85
2024-01-30T09:37:58.252Z,2.20
2024-01-30T09:40:25.652Z,0.77
2024-01-30T09:42:52.632Z,1.27
2024-01-30T09:45:21.305Z,3.53
2024-01-30T09:47:49.356Z,2.80
2024-01-30T09:50:18.706Z,2.13
2024-01-30T09:52:46.634Z,2.35
2024-01-30T09:55:13.714Z,0.88
2024-01-30T09:57:40.649Z,2.25
2024-01-30T10:00:10.019Z,2.50
2024-01-30T10:02:37.308Z,2.08
2024-01-30T10:05:04.503Z,2.75
2024-01-30T10:07:32.578Z,2.97
2024-01-30T10:09:59.373Z,3.00
2024-01-30T10:12:27.617Z,2.95
2024-01-30T10:14:57.734Z,5.60
2024-01-30T10:17:32.705Z,1.70
2024-01-30T10:20:01.560Z,2.83
2024-01-30T10:22:29.083Z,2.70
2024-01-30T10:24:57.696Z,1.38
2024-01-30T10:27:28.182Z,1.77
2024-01-30T10:29:54.906Z,2.15
2024-01-30T10:32:23.139Z,4.30
2024-01-30T10:34:50.208Z,4.90
2024-01-30T10:37:20.261Z,3.95
2024-01-30T10:39:47.638Z,5.22
2024-01-30T10:42:16.876Z,4.20
2024-01-30T10:47:28.776Z,5.45
2024-01-30T10:49:56.743Z,10.00
2024-01-30T10:52:27.090Z,10.20
2024-01-30T10:57:26.665Z,6.45
2024-01-30T10:59:58.043Z,10.85
2024-01-30T11:02:26.413Z,9.50
2024-01-30T11:04:59.281Z,7.03
2024-01-30T11:07:29.691Z,4.40
2024-01-30T11:10:05.221Z,5.88
2024-01-30T11:12:34.680Z,3.97
2024-01-30T11:15:06.607Z,6.43
2024-01-30T11:22:57.232Z,3.08
2024-01-30T11:25:25.104Z,3.83
2024-01-30T11:27:54.652Z,2.28
2024-01-30T11:35:48.803Z,4.60
2024-01-30T11:38:17.117Z,3.47
2024-01-30T11:40:48.515Z,4.00
2024-01-30T11:43:15.303Z,3.65
2024-01-30T11:45:42.062Z,4.22
2024-01-30T11:48:11.940Z,4.13
2024-01-30T11:50:39.899Z,3.42
2024-01-30T11:53:08.205Z,3.47
2024-01-30T11:55:36.895Z,4.45
2024-01-30T11:58:04.088Z,4.75
2024-01-30T12:00:32.473Z,4.80
2024-01-30T12:03:01.793Z,2.75
2024-01-30T12:05:29.492Z,4.45
2024-01-30T12:07:57.021Z,4.03
2024-01-30T12:10:23.759Z,2.83
2024-01-30T12:12:52.901Z,3.17
2024-01-30T12:15:20.174Z,4.25
2024-01-30T12:17:46.856Z,4.35
2024-01-30T12:20:16.123Z,3.08
2024-01-30T12:22:46.419Z,2.78
2024-01-30T12:27:53.132Z,3.67
2024-01-30T12:30:23.214Z,4.45
2024-01-30T12:32:52.811Z,5.80
2024-01-30T12:35:22.055Z,3.42
2024-01-30T12:37:49.919Z,3.75
2024-01-30T12:40:17.175Z,3.92
2024-01-30T12:42:47.149Z,2.33
2024-01-30T12:45:15.845Z,4.22
2024-01-30T12:47:43.228Z,2.75
2024-01-30T12:50:13.641Z,2.90
2024-01-30T12:52:41.637Z,2.40
2024-01-30T12:55:08.328Z,4.32
2024-01-30T12:57:36.506Z,3.42
2024-01-30T13:00:04.250Z,3.33
2024-01-30T13:02:36.123Z,5.50
2024-01-30T13:05:04.027Z,4.93
2024-01-30T13:07:30.752Z,3.47
2024-01-30T13:10:05.051Z,5.53
2024-01-30T13:12:33.786Z,3.33
2024-01-30T13:15:02.639Z,4.15
2024-01-30T13:17:29.796Z,3.95
2024-01-30T13:19:59.820Z,16.50
2024-01-30T13:22:29.518Z,9.80
2024-01-30T13:24:56.258Z,3.95
2024-01-30T13:27:23.077Z,4.28
2024-01-30T13:29:49.753Z,3.20
2024-01-30T13:32:16.838Z,5.13
2024-01-30T13:34:44.939Z,11.18
2024-01-30T13:37:11.919Z,45.60
2024-01-30T13:39:40.362Z,4.47
2024-01-30T13:42:07.357Z,3.40
2024-01-30T13:44:35.354Z,3.30
2024-01-30T13:47:03.648Z,13.65
2024-01-30T13:49:30.395Z,3.78
2024-01-30T13:52:00.238Z,3.42
2024-01-30T13:54:27.361Z,3.30
2024-01-30T13:56:54.142Z,2.40
2024-01-30T13:59:24.873Z,1.58
2024-01-30T14:01:52.368Z,3.42
2024-01-30T14:04:19.380Z,2.35
2024-01-30T14:06:53.247Z,3.38
2024-01-30T14:09:23.911Z,3.72
2024-01-30T14:11:50.730Z,1.85
2024-01-30T14:14:17.408Z,3.05
2024-01-30T14:16:44.331Z,3.20
2024-01-30T14:19:11.296Z,3.65
2024-01-30T14:21:38.480Z,3.67
2024-01-30T14:24:05.497Z,4.95
2024-01-30T14:26:32.219Z,2.13
2024-01-30T14:28:58.936Z,2.47
2024-01-30T14:31:25.826Z,1.50
2024-01-30T14:33:53.853Z,2.10
2024-01-30T14:36:21.691Z,3.70
2024-01-30T14:38:48.381Z,3.50
2024-01-30T14:41:15.749Z,3.53
2024-01-30T14:43:42.456Z,2.17
2024-01-30T14:46:09.189Z,3.20
2024-01-30T14:48:35.873Z,2.88
2024-01-30T14:51:02.590Z,1.95
2024-01-30T14:53:29.274Z,2.42
2024-01-30T14:55:57.358Z,4.00
2024-01-30T14:58:24.183Z,2.85
2024-01-30T15:00:52.457Z,2.78
2024-01-30T15:03:19.288Z,1.75
2024-01-30T15:05:47.038Z,1.98
2024-01-30T15:08:13.731Z,1.67
2024-01-30T15:10:40.592Z,1.83
2024-01-30T15:13:08.825Z,1.25
2024-01-30T15:15:35.558Z,2.50
2024-01-30T15:18:02.430Z,2.15
2024-01-30T15:20:29.197Z,4.03
2024-01-30T15:22:55.952Z,3.55
2024-01-30T15:25:24.055Z,1.90
2024-01-30T15:27:52.153Z,2.38
2024-01-30T15:30:20.806Z,2.22
2024-01-30T15:32:48.057Z,2.22
2024-01-30T15:35:14.903Z,2.85
2024-01-30T15:37:41.565Z,3.15
2024-01-30T15:40:09.751Z,2.70
2024-01-30T15:42:37.952Z,5.18
2024-01-30T15:45:08.421Z,2.65
2024-01-30T15:47:35.573Z,2.25
2024-01-30T15:50:04.150Z,2.80
2024-01-30T15:52:31.209Z,2.80
2024-01-30T15:54:58.033Z,2.17
2024-01-30T15:57:26.894Z,3.10
2024-01-30T15:59:54.418Z,2.10
2024-01-30T16:02:22.758Z,3.17
2024-01-30T16:04:51.093Z,5.22
2024-01-30T16:07:17.994Z,4.68
2024-01-30T16:09:44.795Z,2.67
2024-01-30T16:12:11.498Z,2.20
2024-01-30T16:14:38.431Z,1.83
2024-01-30T16:17:05.285Z,1.30
2024-01-30T16:19:33.770Z,2.95
2024-01-30T16:22:00.619Z,2.72
2024-01-30T16:24:28.771Z,2.20
2024-01-30T16:26:58.094Z,1.67
2024-01-30T16:29:24.853Z,3.03
2024-01-30T16:31:51.538Z,2.45
2024-01-30T16:34:18.263Z,3.83
2024-01-30T16:36:46.386Z,28.55
2024-01-30T16:39:13.331Z,10.02
2024-01-30T16:41:42.130Z,16.60
2024-01-30T16:44:08.769Z,11.13
2024-01-30T16:46:37.357Z,10.88
2024-01-30T16:49:04.531Z,9.48
2024-01-30T16:51:32.663Z,4.38
2024-01-30T16:54:01.228Z,4.07
2024-01-30T16:56:27.886Z,3.28
2024-01-30T16:58:55.794Z,3.38
2024-01-30T17:01:23.964Z,7.60
2024-01-30T17:03:50.756Z,10.98
2024-01-30T17:06:19.520Z,8.73
2024-01-30T17:08:46.671Z,6.47
2024-01-30T17:11:13.599Z,3.30
2024-01-30T17:13:41.621Z,3.63
2024-01-30T17:16:08.476Z,3.30
2024-01-30T17:18:35.207Z,6.63
2024-01-30T17:21:01.816Z,32.17
2024-01-30T17:23:28.451Z,10.98
2024-01-30T17:25:55.548Z,7.57
2024-01-30T17:28:22.400Z,17.00
2024-01-30T17:30:49.317Z,21.67
2024-01-30T17:33:17.431Z,13.60
2024-01-30T17:35:44.276Z,11.77
2024-01-30T17:38:10.890Z,76.60
2024-01-30T17:40:37.685Z,35.95
2024-01-30T17:43:04.706Z,11.38
2024-01-30T17:45:31.328Z,9.98
2024-01-30T17:47:58.048Z,11.57
2024-01-30T17:50:24.777Z,4.80
2024-01-30T17:52:53.943Z,4.30
2024-01-30T17:55:20.801Z,8.57
2024-01-30T17:57:47.485Z,3.33
2024-01-30T18:00:17.532Z,4.97
2024-01-30T18:02:46.009Z,12.90
2024-01-30T18:05:13.754Z,11.25
2024-01-30T18:07:41.178Z,8.25
2024-01-30T18:10:09.661Z,7.18
2024-01-30T18:12:37.556Z,8.32
2024-01-30T18:15:04.956Z,5.85
2024-01-30T18:17:31.596Z,7.72
2024-01-30T18:19:58.400Z,10.07
2024-01-30T18:22:25.255Z,10.15
2024-01-30T18:24:51.894Z,11.32
2024-01-30T18:27:18.619Z,6.75
2024-01-30T18:29:45.373Z,4.45
2024-01-30T18:32:12.053Z,8.68
2024-01-30T18:34:38.740Z,14.75
2024-01-30T18:37:05.771Z,21.50
2024-01-30T18:39:32.594Z,12.18
2024-01-30T18:41:59.429Z,6.93
2024-01-30T18:44:26.014Z,5.97
2024-01-30T18:46:52.807Z,5.22
2024-01-30T18:49:21.339Z,7.50
2024-01-30T18:51:54.306Z,7.88
2024-01-30T18:54:24.001Z,8.90
2024-01-30T18:56:52.216Z,8.07
2024-01-30T18:59:19.433Z,6.38
2024-01-30T19:01:47.052Z,6.63
2024-01-30T19:04:14.398Z,10.02
2024-01-30T19:06:41.212Z,10.45
2024-01-30T19:09:09.197Z,10.13
2024-01-30T19:11:36.446Z,11.07
2024-01-30T19:14:03.338Z,11.45
2024-01-30T19:16:30.135Z,10.93
2024-01-30T19:18:57.339Z,9.85
2024-01-30T19:21:26.657Z,11.05
2024-01-30T19:23:54.989Z,10.15
2024-01-30T19:26:21.634Z,9.10
2024-01-30T19:28:50.495Z,7.40
2024-01-30T19:31:19.169Z,11.27
2024-01-30T19:33:46.698Z,11.15
2024-01-30T19:36:14.093Z,11.80
2024-01-30T19:38:40.835Z,11.48
2024-01-30T19:41:08.705Z,11.38
2024-01-30T19:43:36.781Z,9.00
2024-01-30T19:46:03.555Z,14.45
2024-01-30T19:48:30.451Z,9.32
2024-01-30T19:50:58.399Z,11.23
2024-01-30T19:53:25.110Z,43.17
2024-01-30T19:55:51.848Z,85.00
2024-01-30T19:58:18.763Z,56.25
2024-01-30T20:00:47.781Z,138.98
2024-01-30T20:03:14.582Z,32.22
2024-01-30T20:05:41.492Z,21.30
2024-01-30T20:08:08.373Z,10.80
2024-01-30T20:10:35.125Z,9.82
2024-01-30T20:13:03.460Z,17.85
2024-01-30T20:15:32.010Z,20.27
2024-01-30T20:17:58.643Z,22.92
2024-01-30T20:20:25.664Z,19.00
2024-01-30T20:22:52.896Z,14.32
2024-01-30T20:25:20.510Z,17.48
2024-01-30T20:27:48.458Z,14.38
2024-01-30T20:30:15.440Z,17.85
2024-01-30T20:32:42.450Z,13.50
2024-01-30T20:35:11.894Z,12.50
2024-01-30T20:37:41.431Z,11.27
2024-01-30T20:40:08.831Z,8.43
2024-01-30T20:42:36.799Z,8.70
2024-01-30T20:45:05.087Z,8.32
2024-01-30T20:47:31.934Z,10.30
2024-01-30T20:49:58.760Z,12.48
2024-01-30T20:52:25.568Z,7.72
2024-01-30T20:54:52.754Z,7.68
2024-01-30T20:57:19.481Z,11.45
2024-01-30T20:59:47.392Z,5.68
2024-01-30T21:02:14.144Z,6.35
2024-01-30T21:04:42.246Z,6.78
2024-01-30T21:07:08.963Z,12.82
2024-01-30T21:09:35.616Z,11.48
2024-01-30T21:12:02.339Z,9.07
2024-01-30T21:14:29.346Z,12.85
2024-01-30T21:16:56.006Z,9.25
2024-01-30T21:19:24.098Z,11.85
2024-01-30T21:21:50.859Z,14.32
2024-01-30T21:24:17.485Z,12.73
2024-01-30T21:26:44.337Z,14.32
2024-01-30T21:29:10.946Z,17.48
2024-01-30T21:31:37.659Z,14.57
2024-01-30T21:34:04.658Z,10.73
2024-01-30T21:36:32.728Z,20.80
2024-01-30T21:38:59.360Z,16.25
2024-01-30T21:41:28.569Z,15.00
2024-01-30T21:43:55.211Z,14.32
2024-01-30T21:46:26.832Z,12.63
2024-01-30T21:48:53.869Z,18.67
2024-01-30T21:51:21.216Z,16.52
2024-01-30T21:53:48.145Z,21.20
2024-01-30T21:56:14.899Z,24.10
2024-01-30T21:58:41.612Z,18.00
2024-01-30T22:01:08.501Z,17.33
2024-01-30T22:03:35.469Z,13.95
2024-01-30T22:06:02.228Z,13.70
2024-01-30T22:08:28.852Z,13.50
2024-01-30T22:10:56.929Z,16.05
2024-01-30T22:13:25.577Z,11.68
2024-01-30T22:15:52.380Z,12.80
2024-01-30T22:18:19.156Z,10.98
2024-01-30T22:20:45.936Z,11.48
2024-01-30T22:23:13.200Z,14.70
2024-01-30T22:25:40.128Z,13.02
2024-01-30T22:28:07.203Z,11.50
2024-01-30T22:30:34.010Z,15.32
2024-01-30T22:33:00.881Z,13.13
2024-01-30T22:35:27.679Z,9.48
2024-01-30T22:37:54.654Z,7.43
2024-01-30T22:40:21.304Z,12.98
2024-01-30T22:42:49.236Z,11.00
2024-01-30T22:45:15.923Z,9.85
2024-01-30T22:47:42.611Z,12.13
2024-01-30T22:50:09.639Z,11.35
2024-01-30T22:52:36.532Z,14.20
2024-01-30T22:55:03.404Z,11.82
2024-01-30T22:57:33.162Z,12.98
2024-01-30T23:00:02.333Z,12.85
2024-01-30T23:02:29.098Z,13.93
2024-01-30T23:04:55.812Z,11.02
2024-01-30T23:07:23.923Z,10.02
2024-01-30T23:09:50.524Z,9.65
2024-01-30T23:12:17.136Z,12.25
2024-01-30T23:14:45.873Z,9.82
2024-01-30T23:17:12.573Z,8.73
2024-01-30T23:19:39.166Z,9.15
2024-01-30T23:22:07.150Z,9.48
2024-01-30T23:24:33.901Z,14.05
2024-01-30T23:27:01.763Z,12.25
2024-01-30T23:29:28.405Z,12.90
2024-01-30T23:31:56.360Z,8.88
2024-01-30T23:34:23.203Z,8.15
2024-01-30T23:36:52.229Z,7.05
2024-01-30T23:39:20.123Z,8.18
2024-01-30T23:41:46.820Z,9.32
2024-01-30T23:44:13.622Z,5.13
2024-01-30T23:46:40.530Z,5.40
2024-01-30T23:49:07.300Z,4.85
2024-01-30T23:51:33.962Z,6.63
2024-01-30T23:54:01.804Z,6.07
2024-01-30T23:56:28.447Z,6.80
2024-01-30T23:58:56.391Z,5.22
